sensor_id;sensor_type;location;lat;lon;timestamp;temperature;humidity
8261;DHT22;64115;50.170;8.242;2023-12-07T00:00:15;1.00;99.90
8261;DHT22;64115;50.170;8.242;2023-12-07T00:02:42;0.90;99.90
8261;DHT22;64115;50.170;8.242;2023-12-07T00:05:10;0.80;99.90
8261;DHT22;64115;50.170;8.242;2023-12-07T00:07:37;0.70;99.90
8261;DHT22;64115;50.170;8.242;2023-12-07T00:10:05;0.60;99.90
8261;DHT22;64115;50.170;8.242;2023-12-07T00:12:32;0.50;99.90
8261;DHT22;64115;50.170;8.242;2023-12-07T00:14:59;0.50;99.90
8261;DHT22;64115;50.170;8.242;2023-12-07T00:17:25;0.50;99.90
8261;DHT22;64115;50.170;8.242;2023-12-07T00:19:52;0.50;99.90
8261;DHT22;64115;50.170;8.242;2023-12-07T00:22:22;0.50;99.90
8261;DHT22;64115;50.170;8.242;2023-12-07T00:24:50;0.40;99.90
8261;DHT22;64115;50.170;8.242;2023-12-07T00:27:16;0.40;99.90
8261;DHT22;64115;50.170;8.242;2023-12-07T00:29:43;0.40;99.90
8261;DHT22;64115;50.170;8.242;2023-12-07T00:32:10;0.30;99.90
8261;DHT22;64115;50.170;8.242;2023-12-07T00:34:37;0.20;99.90
8261;DHT22;64115;50.170;8.242;2023-12-07T00:37:04;0.10;99.90
8261;DHT22;64115;50.170;8.242;2023-12-07T00:39:32;0.10;99.90
8261;DHT22;64115;50.170;8.242;2023-12-07T00:41:59;0.00;99.90
8261;DHT22;64115;50.170;8.242;2023-12-07T00:44:26;0.00;99.90
8261;DHT22;64115;50.170;8.242;2023-12-07T00:46:52;0.00;99.90
8261;DHT22;64115;50.170;8.242;2023-12-07T00:49:19;0.10;99.90
8261;DHT22;64115;50.170;8.242;2023-12-07T00:51:46;0.20;99.90
8261;DHT22;64115;50.170;8.242;2023-12-07T00:54:13;0.40;99.90
8261;DHT22;64115;50.170;8.242;2023-12-07T00:56:41;0.50;99.90
8261;DHT22;64115;50.170;8.242;2023-12-07T00:59:08;0.60;99.90
8261;DHT22;64115;50.170;8.242;2023-12-07T01:01:34;0.60;99.90
8261;DHT22;64115;50.170;8.242;2023-12-07T01:04:04;0.70;99.90
8261;DHT22;64115;50.170;8.242;2023-12-07T01:06:31;0.80;99.90
8261;DHT22;64115;50.170;8.242;2023-12-07T01:08:57;0.90;99.90
8261;DHT22;64115;50.170;8.242;2023-12-07T01:11:25;0.80;99.90
8261;DHT22;64115;50.170;8.242;2023-12-07T01:13:53;0.90;99.90
8261;DHT22;64115;50.170;8.242;2023-12-07T01:16:19;0.90;99.90
8261;DHT22;64115;50.170;8.242;2023-12-07T01:18:46;1.00;99.90
8261;DHT22;64115;50.170;8.242;2023-12-07T01:21:13;1.00;99.90
8261;DHT22;64115;50.170;8.242;2023-12-07T01:23:40;1.00;99.90
8261;DHT22;64115;50.170;8.242;2023-12-07T01:26:08;1.00;99.90
8261;DHT22;64115;50.170;8.242;2023-12-07T01:28:34;1.00;99.90
8261;DHT22;64115;50.170;8.242;2023-12-07T01:31:03;1.00;99.90
8261;DHT22;64115;50.170;8.242;2023-12-07T01:33:30;1.10;99.90
8261;DHT22;64115;50.170;8.242;2023-12-07T01:35:56;1.00;99.90
8261;DHT22;64115;50.170;8.242;2023-12-07T01:38:23;1.00;99.90
8261;DHT22;64115;50.170;8.242;2023-12-07T01:40:50;1.00;99.90
8261;DHT22;64115;50.170;8.242;2023-12-07T01:43:18;0.90;99.90
8261;DHT22;64115;50.170;8.242;2023-12-07T01:45:46;0.90;99.90
8261;DHT22;64115;50.170;8.242;2023-12-07T01:48:14;0.70;99.90
8261;DHT22;64115;50.170;8.242;2023-12-07T01:50:41;0.60;99.90
8261;DHT22;64115;50.170;8.242;2023-12-07T01:53:08;0.50;99.90
8261;DHT22;64115;50.170;8.242;2023-12-07T01:55:37;0.40;99.90
8261;DHT22;64115;50.170;8.242;2023-12-07T01:58:04;0.30;99.90
8261;DHT22;64115;50.170;8.242;2023-12-07T02:00:31;0.10;99.90
8261;DHT22;64115;50.170;8.242;2023-12-07T02:02:58;0.00;99.90
8261;DHT22;64115;50.170;8.242;2023-12-07T02:05:26;-0.10;99.90
8261;DHT22;64115;50.170;8.242;2023-12-07T02:07:54;-0.20;99.90
8261;DHT22;64115;50.170;8.242;2023-12-07T02:10:20;-0.30;99.90
8261;DHT22;64115;50.170;8.242;2023-12-07T02:12:47;-0.40;99.90
8261;DHT22;64115;50.170;8.242;2023-12-07T02:15:14;-0.40;99.90
8261;DHT22;64115;50.170;8.242;2023-12-07T02:17:49;-0.40;99.90
8261;DHT22;64115;50.170;8.242;2023-12-07T02:20:23;-0.40;99.90
8261;DHT22;64115;50.170;8.242;2023-12-07T02:22:55;-0.50;99.90
8261;DHT22;64115;50.170;8.242;2023-12-07T02:25:24;-0.50;99.90
8261;DHT22;64115;50.170;8.242;2023-12-07T02:27:54;-0.40;99.90
8261;DHT22;64115;50.170;8.242;2023-12-07T02:30:20;-0.40;99.90
8261;DHT22;64115;50.170;8.242;2023-12-07T02:32:47;-0.40;99.90
8261;DHT22;64115;50.170;8.242;2023-12-07T02:35:14;-0.40;99.90
8261;DHT22;64115;50.170;8.242;2023-12-07T02:37:44;-0.40;99.90
8261;DHT22;64115;50.170;8.242;2023-12-07T02:40:12;-0.50;99.90
8261;DHT22;64115;50.170;8.242;2023-12-07T02:42:41;-0.50;99.90
8261;DHT22;64115;50.170;8.242;2023-12-07T02:45:11;-0.60;99.90
8261;DHT22;64115;50.170;8.242;2023-12-07T02:47:38;-0.60;99.90
8261;DHT22;64115;50.170;8.242;2023-12-07T02:50:06;-0.70;99.90
8261;DHT22;64115;50.170;8.242;2023-12-07T02:52:34;-0.70;99.90
8261;DHT22;64115;50.170;8.242;2023-12-07T02:55:01;-0.70;99.90
8261;DHT22;64115;50.170;8.242;2023-12-07T02:57:28;-0.80;99.90
8261;DHT22;64115;50.170;8.242;2023-12-07T02:59:54;-0.80;99.90
8261;DHT22;64115;50.170;8.242;2023-12-07T03:02:23;-0.80;99.90
8261;DHT22;64115;50.170;8.242;2023-12-07T03:04:49;-0.80;99.90
8261;DHT22;64115;50.170;8.242;2023-12-07T03:07:16;-0.90;99.90
8261;DHT22;64115;50.170;8.242;2023-12-07T03:09:43;-0.90;99.90
8261;DHT22;64115;50.170;8.242;2023-12-07T03:12:09;-0.90;99.90
8261;DHT22;64115;50.170;8.242;2023-12-07T03:14:36;-0.90;99.90
8261;DHT22;64115;50.170;8.242;2023-12-07T03:17:03;-0.90;99.90
8261;DHT22;64115;50.170;8.242;2023-12-07T03:19:32;-0.90;99.90
8261;DHT22;64115;50.170;8.242;2023-12-07T03:21:58;-0.90;99.90
8261;DHT22;64115;50.170;8.242;2023-12-07T03:24:25;-0.90;99.90
8261;DHT22;64115;50.170;8.242;2023-12-07T03:26:52;-0.70;99.90
8261;DHT22;64115;50.170;8.242;2023-12-07T03:29:19;-0.70;99.90
8261;DHT22;64115;50.170;8.242;2023-12-07T03:31:47;-0.50;99.90
8261;DHT22;64115;50.170;8.242;2023-12-07T03:34:13;-0.40;99.90
8261;DHT22;64115;50.170;8.242;2023-12-07T03:36:42;-0.40;99.90
8261;DHT22;64115;50.170;8.242;2023-12-07T03:39:09;-0.30;99.90
8261;DHT22;64115;50.170;8.242;2023-12-07T03:41:36;-0.30;99.90
8261;DHT22;64115;50.170;8.242;2023-12-07T03:44:03;-0.40;99.90
8261;DHT22;64115;50.170;8.242;2023-12-07T03:46:30;-0.40;99.90
8261;DHT22;64115;50.170;8.242;2023-12-07T03:48:56;-0.50;99.90
8261;DHT22;64115;50.170;8.242;2023-12-07T03:51:23;-0.50;99.90
8261;DHT22;64115;50.170;8.242;2023-12-07T03:53:51;-0.40;99.90
8261;DHT22;64115;50.170;8.242;2023-12-07T03:56:24;-0.30;99.90
8261;DHT22;64115;50.170;8.242;2023-12-07T03:58:51;-0.30;99.90
8261;DHT22;64115;50.170;8.242;2023-12-07T04:01:18;-0.20;99.90
8261;DHT22;64115;50.170;8.242;2023-12-07T04:03:47;-0.10;99.90
8261;DHT22;64115;50.170;8.242;2023-12-07T04:06:14;0.00;99.90
8261;DHT22;64115;50.170;8.242;2023-12-07T04:08:42;0.00;99.90
8261;DHT22;64115;50.170;8.242;2023-12-07T04:11:10;0.00;99.90
8261;DHT22;64115;50.170;8.242;2023-12-07T04:13:37;-0.10;99.90
8261;DHT22;64115;50.170;8.242;2023-12-07T04:16:05;-0.10;99.90
8261;DHT22;64115;50.170;8.242;2023-12-07T04:18:32;-0.20;99.90
8261;DHT22;64115;50.170;8.242;2023-12-07T04:20:59;-0.30;99.90
8261;DHT22;64115;50.170;8.242;2023-12-07T04:23:25;-0.40;99.90
8261;DHT22;64115;50.170;8.242;2023-12-07T04:25:52;-0.40;99.90
8261;DHT22;64115;50.170;8.242;2023-12-07T04:28:20;-0.40;99.90
8261;DHT22;64115;50.170;8.242;2023-12-07T04:30:47;-0.40;99.90
8261;DHT22;64115;50.170;8.242;2023-12-07T04:33:14;-0.40;99.90
8261;DHT22;64115;50.170;8.242;2023-12-07T04:35:41;-0.40;99.90
8261;DHT22;64115;50.170;8.242;2023-12-07T04:38:08;-0.50;99.90
8261;DHT22;64115;50.170;8.242;2023-12-07T04:40:35;-0.50;99.90
8261;DHT22;64115;50.170;8.242;2023-12-07T04:43:01;-0.60;99.90
8261;DHT22;64115;50.170;8.242;2023-12-07T04:45:29;-0.60;99.90
8261;DHT22;64115;50.170;8.242;2023-12-07T04:47:56;-0.70;99.90
8261;DHT22;64115;50.170;8.242;2023-12-07T04:50:23;-0.70;99.90
8261;DHT22;64115;50.170;8.242;2023-12-07T04:52:50;-0.70;99.90
8261;DHT22;64115;50.170;8.242;2023-12-07T04:55:17;-0.80;99.90
8261;DHT22;64115;50.170;8.242;2023-12-07T04:57:43;-0.80;99.90
8261;DHT22;64115;50.170;8.242;2023-12-07T05:00:11;-0.80;99.90
8261;DHT22;64115;50.170;8.242;2023-12-07T05:02:40;-0.80;99.90
8261;DHT22;64115;50.170;8.242;2023-12-07T05:05:07;-0.70;99.90
8261;DHT22;64115;50.170;8.242;2023-12-07T05:07:34;-0.70;99.90
8261;DHT22;64115;50.170;8.242;2023-12-07T05:10:01;-0.80;99.90
8261;DHT22;64115;50.170;8.242;2023-12-07T05:12:28;-0.80;99.90
8261;DHT22;64115;50.170;8.242;2023-12-07T05:14:55;-0.90;99.90
8261;DHT22;64115;50.170;8.242;2023-12-07T05:17:22;-0.90;99.90
8261;DHT22;64115;50.170;8.242;2023-12-07T05:19:50;-1.00;99.90
8261;DHT22;64115;50.170;8.242;2023-12-07T05:22:16;-1.00;99.90
8261;DHT22;64115;50.170;8.242;2023-12-07T05:24:43;-1.00;99.90
8261;DHT22;64115;50.170;8.242;2023-12-07T05:27:10;-1.10;99.90
8261;DHT22;64115;50.170;8.242;2023-12-07T05:29:37;-1.10;99.90
8261;DHT22;64115;50.170;8.242;2023-12-07T05:32:04;-1.20;99.90
8261;DHT22;64115;50.170;8.242;2023-12-07T05:34:31;-1.20;99.90
8261;DHT22;64115;50.170;8.242;2023-12-07T05:37:00;-1.20;99.90
8261;DHT22;64115;50.170;8.242;2023-12-07T05:39:27;-1.20;99.90
8261;DHT22;64115;50.170;8.242;2023-12-07T05:41:54;-1.10;99.90
8261;DHT22;64115;50.170;8.242;2023-12-07T05:44:21;-1.10;99.90
8261;DHT22;64115;50.170;8.242;2023-12-07T05:46:48;-1.10;99.90
8261;DHT22;64115;50.170;8.242;2023-12-07T05:49:15;-1.10;99.90
8261;DHT22;64115;50.170;8.242;2023-12-07T05:51:41;-1.10;99.90
8261;DHT22;64115;50.170;8.242;2023-12-07T05:54:10;-1.10;99.90
8261;DHT22;64115;50.170;8.242;2023-12-07T05:56:36;-1.20;99.90
8261;DHT22;64115;50.170;8.242;2023-12-07T05:59:04;-1.20;99.90
8261;DHT22;64115;50.170;8.242;2023-12-07T06:01:30;-1.10;99.90
8261;DHT22;64115;50.170;8.242;2023-12-07T06:03:57;-1.10;99.90
8261;DHT22;64115;50.170;8.242;2023-12-07T06:06:24;-1.10;99.90
8261;DHT22;64115;50.170;8.242;2023-12-07T06:08:51;-1.00;99.90
8261;DHT22;64115;50.170;8.242;2023-12-07T06:11:19;-1.10;99.90
8261;DHT22;64115;50.170;8.242;2023-12-07T06:13:46;-1.10;99.90
8261;DHT22;64115;50.170;8.242;2023-12-07T06:16:13;-1.20;99.90
8261;DHT22;64115;50.170;8.242;2023-12-07T06:18:40;-1.20;99.90
8261;DHT22;64115;50.170;8.242;2023-12-07T06:21:07;-1.10;99.90
8261;DHT22;64115;50.170;8.242;2023-12-07T06:23:34;-1.10;99.90
8261;DHT22;64115;50.170;8.242;2023-12-07T06:26:01;-1.20;99.90
8261;DHT22;64115;50.170;8.242;2023-12-07T06:28:31;-1.20;99.90
8261;DHT22;64115;50.170;8.242;2023-12-07T06:31:04;-1.30;99.90
8261;DHT22;64115;50.170;8.242;2023-12-07T06:33:31;-1.30;99.90
8261;DHT22;64115;50.170;8.242;2023-12-07T06:35:58;-1.40;99.90
8261;DHT22;64115;50.170;8.242;2023-12-07T06:38:25;-1.50;99.90
8261;DHT22;64115;50.170;8.242;2023-12-07T06:40:51;-1.50;99.90
8261;DHT22;64115;50.170;8.242;2023-12-07T06:43:18;-1.50;99.90
8261;DHT22;64115;50.170;8.242;2023-12-07T06:45:46;-1.60;99.90
8261;DHT22;64115;50.170;8.242;2023-12-07T06:48:13;-1.60;99.90
8261;DHT22;64115;50.170;8.242;2023-12-07T06:50:40;-1.60;99.90
8261;DHT22;64115;50.170;8.242;2023-12-07T06:53:07;-1.60;99.90
8261;DHT22;64115;50.170;8.242;2023-12-07T06:55:33;-1.70;99.90
8261;DHT22;64115;50.170;8.242;2023-12-07T06:58:00;-1.70;99.90
8261;DHT22;64115;50.170;8.242;2023-12-07T07:00:27;-1.80;99.90
8261;DHT22;64115;50.170;8.242;2023-12-07T07:02:55;-1.80;99.90
8261;DHT22;64115;50.170;8.242;2023-12-07T07:05:22;-1.80;99.90
8261;DHT22;64115;50.170;8.242;2023-12-07T07:07:49;-1.80;99.90
8261;DHT22;64115;50.170;8.242;2023-12-07T07:10:17;-1.70;99.90
8261;DHT22;64115;50.170;8.242;2023-12-07T07:12:43;-1.60;99.90
8261;DHT22;64115;50.170;8.242;2023-12-07T07:15:10;-1.60;99.90
8261;DHT22;64115;50.170;8.242;2023-12-07T07:17:37;-1.50;99.90
8261;DHT22;64115;50.170;8.242;2023-12-07T07:20:06;-1.40;99.90
8261;DHT22;64115;50.170;8.242;2023-12-07T07:22:33;-1.50;99.90
8261;DHT22;64115;50.170;8.242;2023-12-07T07:25:00;-1.40;99.90
8261;DHT22;64115;50.170;8.242;2023-12-07T07:27:27;-1.40;99.90
8261;DHT22;64115;50.170;8.242;2023-12-07T07:29:54;-1.40;99.90
8261;DHT22;64115;50.170;8.242;2023-12-07T07:32:21;-1.40;99.90
8261;DHT22;64115;50.170;8.242;2023-12-07T07:34:48;-1.50;99.90
8261;DHT22;64115;50.170;8.242;2023-12-07T07:37:16;-1.50;99.90
8261;DHT22;64115;50.170;8.242;2023-12-07T07:39:44;-1.50;99.90
8261;DHT22;64115;50.170;8.242;2023-12-07T07:42:12;-1.50;99.90
8261;DHT22;64115;50.170;8.242;2023-12-07T07:44:39;-1.50;99.90
8261;DHT22;64115;50.170;8.242;2023-12-07T07:47:05;-1.40;99.90
8261;DHT22;64115;50.170;8.242;2023-12-07T07:49:33;-1.40;99.90
8261;DHT22;64115;50.170;8.242;2023-12-07T07:52:00;-1.40;99.90
8261;DHT22;64115;50.170;8.242;2023-12-07T07:54:28;-1.40;99.90
8261;DHT22;64115;50.170;8.242;2023-12-07T07:56:55;-1.20;99.90
8261;DHT22;64115;50.170;8.242;2023-12-07T07:59:22;-1.20;99.90
8261;DHT22;64115;50.170;8.242;2023-12-07T08:01:49;-1.20;99.90
8261;DHT22;64115;50.170;8.242;2023-12-07T08:04:16;-1.10;99.90
8261;DHT22;64115;50.170;8.242;2023-12-07T08:06:43;-1.00;99.90
8261;DHT22;64115;50.170;8.242;2023-12-07T08:09:10;-0.90;99.90
8261;DHT22;64115;50.170;8.242;2023-12-07T08:11:39;-0.80;99.90
8261;DHT22;64115;50.170;8.242;2023-12-07T08:14:06;-0.70;99.90
8261;DHT22;64115;50.170;8.242;2023-12-07T08:16:33;-0.60;99.90
8261;DHT22;64115;50.170;8.242;2023-12-07T08:18:59;-0.50;99.90
8261;DHT22;64115;50.170;8.242;2023-12-07T08:21:26;-0.40;99.90
8261;DHT22;64115;50.170;8.242;2023-12-07T08:23:55;-0.30;99.90
8261;DHT22;64115;50.170;8.242;2023-12-07T08:26:21;-0.20;99.90
8261;DHT22;64115;50.170;8.242;2023-12-07T08:28:50;-0.10;99.90
8261;DHT22;64115;50.170;8.242;2023-12-07T08:31:19;-0.10;99.90
8261;DHT22;64115;50.170;8.242;2023-12-07T08:33:48;0.20;99.90
8261;DHT22;64115;50.170;8.242;2023-12-07T08:36:15;0.20;99.90
8261;DHT22;64115;50.170;8.242;2023-12-07T08:38:42;0.40;99.90
8261;DHT22;64115;50.170;8.242;2023-12-07T08:41:09;0.50;99.90
8261;DHT22;64115;50.170;8.242;2023-12-07T08:43:35;0.40;99.90
8261;DHT22;64115;50.170;8.242;2023-12-07T08:46:04;0.50;99.90
8261;DHT22;64115;50.170;8.242;2023-12-07T08:48:32;0.60;99.90
8261;DHT22;64115;50.170;8.242;2023-12-07T08:50:59;0.80;99.90
8261;DHT22;64115;50.170;8.242;2023-12-07T08:53:27;0.90;99.90
8261;DHT22;64115;50.170;8.242;2023-12-07T08:55:54;1.00;99.90
8261;DHT22;64115;50.170;8.242;2023-12-07T08:58:21;1.00;99.90
8261;DHT22;64115;50.170;8.242;2023-12-07T09:00:47;1.10;99.90
8261;DHT22;64115;50.170;8.242;2023-12-07T09:03:16;1.00;99.90
8261;DHT22;64115;50.170;8.242;2023-12-07T09:05:42;1.10;99.90
8261;DHT22;64115;50.170;8.242;2023-12-07T09:08:09;1.10;99.90
8261;DHT22;64115;50.170;8.242;2023-12-07T09:10:36;1.20;99.90
8261;DHT22;64115;50.170;8.242;2023-12-07T09:13:03;1.30;99.90
8261;DHT22;64115;50.170;8.242;2023-12-07T09:15:31;1.30;99.90
8261;DHT22;64115;50.170;8.242;2023-12-07T09:17:58;1.30;99.90
8261;DHT22;64115;50.170;8.242;2023-12-07T09:20:26;1.40;99.90
8261;DHT22;64115;50.170;8.242;2023-12-07T09:22:53;1.40;99.90
8261;DHT22;64115;50.170;8.242;2023-12-07T09:25:20;1.40;99.90
8261;DHT22;64115;50.170;8.242;2023-12-07T09:27:47;1.40;99.90
8261;DHT22;64115;50.170;8.242;2023-12-07T09:30:14;1.40;99.90
8261;DHT22;64115;50.170;8.242;2023-12-07T09:32:42;1.40;99.90
8261;DHT22;64115;50.170;8.242;2023-12-07T09:35:09;1.40;99.90
8261;DHT22;64115;50.170;8.242;2023-12-07T09:37:41;1.50;99.90
8261;DHT22;64115;50.170;8.242;2023-12-07T09:40:14;1.60;99.90
8261;DHT22;64115;50.170;8.242;2023-12-07T09:42:42;1.60;99.90
8261;DHT22;64115;50.170;8.242;2023-12-07T09:45:10;1.60;99.90
8261;DHT22;64115;50.170;8.242;2023-12-07T09:47:37;1.60;99.90
8261;DHT22;64115;50.170;8.242;2023-12-07T09:50:06;1.70;99.90
8261;DHT22;64115;50.170;8.242;2023-12-07T09:52:34;1.70;99.90
8261;DHT22;64115;50.170;8.242;2023-12-07T09:55:03;1.80;99.90
8261;DHT22;64115;50.170;8.242;2023-12-07T09:57:30;1.80;99.90
8261;DHT22;64115;50.170;8.242;2023-12-07T09:59:58;1.80;99.90
8261;DHT22;64115;50.170;8.242;2023-12-07T10:02:25;1.80;99.90
8261;DHT22;64115;50.170;8.242;2023-12-07T10:05:03;1.80;99.90
8261;DHT22;64115;50.170;8.242;2023-12-07T10:07:33;1.80;99.90
8261;DHT22;64115;50.170;8.242;2023-12-07T10:10:04;1.90;99.90
8261;DHT22;64115;50.170;8.242;2023-12-07T10:12:32;1.80;99.90
8261;DHT22;64115;50.170;8.242;2023-12-07T10:15:00;1.80;99.90
8261;DHT22;64115;50.170;8.242;2023-12-07T10:17:45;1.70;99.90
8261;DHT22;64115;50.170;8.242;2023-12-07T10:20:14;1.60;99.90
8261;DHT22;64115;50.170;8.242;2023-12-07T10:22:41;1.70;99.90
8261;DHT22;64115;50.170;8.242;2023-12-07T10:25:11;1.60;99.90
8261;DHT22;64115;50.170;8.242;2023-12-07T10:27:40;1.60;99.90
8261;DHT22;64115;50.170;8.242;2023-12-07T10:30:10;1.60;99.90
8261;DHT22;64115;50.170;8.242;2023-12-07T10:32:38;1.60;99.90
8261;DHT22;64115;50.170;8.242;2023-12-07T10:35:07;1.60;99.90
8261;DHT22;64115;50.170;8.242;2023-12-07T10:37:34;1.60;99.90
8261;DHT22;64115;50.170;8.242;2023-12-07T10:40:02;1.70;99.90
8261;DHT22;64115;50.170;8.242;2023-12-07T10:42:33;1.70;99.90
8261;DHT22;64115;50.170;8.242;2023-12-07T10:45:04;1.80;99.90
8261;DHT22;64115;50.170;8.242;2023-12-07T10:47:35;1.80;99.90
8261;DHT22;64115;50.170;8.242;2023-12-07T10:50:05;1.90;99.90
8261;DHT22;64115;50.170;8.242;2023-12-07T10:52:37;1.90;99.90
8261;DHT22;64115;50.170;8.242;2023-12-07T10:55:07;2.00;99.90
8261;DHT22;64115;50.170;8.242;2023-12-07T10:57:38;2.00;99.90
8261;DHT22;64115;50.170;8.242;2023-12-07T11:00:07;2.00;99.90
8261;DHT22;64115;50.170;8.242;2023-12-07T11:02:34;1.90;99.90
8261;DHT22;64115;50.170;8.242;2023-12-07T11:05:02;1.90;99.90
8261;DHT22;64115;50.170;8.242;2023-12-07T11:07:41;1.80;99.90
8261;DHT22;64115;50.170;8.242;2023-12-07T11:10:14;1.60;99.90
8261;DHT22;64115;50.170;8.242;2023-12-07T11:12:47;1.50;99.90
8261;DHT22;64115;50.170;8.242;2023-12-07T11:15:16;1.40;99.90
8261;DHT22;64115;50.170;8.242;2023-12-07T11:17:51;1.30;99.90
8261;DHT22;64115;50.170;8.242;2023-12-07T11:20:19;1.20;99.90
8261;DHT22;64115;50.170;8.242;2023-12-07T11:22:47;1.20;99.90
8261;DHT22;64115;50.170;8.242;2023-12-07T11:25:15;1.30;99.90
8261;DHT22;64115;50.170;8.242;2023-12-07T11:27:45;1.20;99.90
8261;DHT22;64115;50.170;8.242;2023-12-07T11:30:15;1.20;99.90
8261;DHT22;64115;50.170;8.242;2023-12-07T11:32:43;1.20;99.90
8261;DHT22;64115;50.170;8.242;2023-12-07T11:35:14;1.10;99.90
8261;DHT22;64115;50.170;8.242;2023-12-07T11:38:00;1.20;99.90
8261;DHT22;64115;50.170;8.242;2023-12-07T11:40:29;1.00;99.90
8261;DHT22;64115;50.170;8.242;2023-12-07T11:42:59;0.90;99.90
8261;DHT22;64115;50.170;8.242;2023-12-07T11:45:39;0.90;99.90
8261;DHT22;64115;50.170;8.242;2023-12-07T11:48:10;0.90;99.90
8261;DHT22;64115;50.170;8.242;2023-12-07T11:50:57;0.90;99.90
8261;DHT22;64115;50.170;8.242;2023-12-07T11:53:25;0.80;99.90
8261;DHT22;64115;50.170;8.242;2023-12-07T11:55:52;0.90;99.90
8261;DHT22;64115;50.170;8.242;2023-12-07T11:58:20;0.80;99.90
8261;DHT22;64115;50.170;8.242;2023-12-07T12:00:47;0.70;99.90
8261;DHT22;64115;50.170;8.242;2023-12-07T12:03:14;0.60;99.90
8261;DHT22;64115;50.170;8.242;2023-12-07T12:05:41;0.50;99.90
8261;DHT22;64115;50.170;8.242;2023-12-07T12:08:09;0.60;99.90
8261;DHT22;64115;50.170;8.242;2023-12-07T12:10:37;0.50;99.90
8261;DHT22;64115;50.170;8.242;2023-12-07T12:13:04;0.60;99.90
8261;DHT22;64115;50.170;8.242;2023-12-07T12:15:32;0.50;99.90
8261;DHT22;64115;50.170;8.242;2023-12-07T12:18:00;0.50;99.90
8261;DHT22;64115;50.170;8.242;2023-12-07T12:20:28;0.50;99.90
8261;DHT22;64115;50.170;8.242;2023-12-07T12:22:55;0.50;99.90
8261;DHT22;64115;50.170;8.242;2023-12-07T12:25:23;0.40;99.90
8261;DHT22;64115;50.170;8.242;2023-12-07T12:27:52;0.40;99.90
8261;DHT22;64115;50.170;8.242;2023-12-07T12:30:19;0.30;99.90
8261;DHT22;64115;50.170;8.242;2023-12-07T12:32:49;0.30;99.90
8261;DHT22;64115;50.170;8.242;2023-12-07T12:35:17;0.30;99.90
8261;DHT22;64115;50.170;8.242;2023-12-07T12:37:45;0.30;99.90
8261;DHT22;64115;50.170;8.242;2023-12-07T12:40:13;0.40;99.90
8261;DHT22;64115;50.170;8.242;2023-12-07T12:42:42;0.40;99.90
8261;DHT22;64115;50.170;8.242;2023-12-07T12:45:10;0.30;99.90
8261;DHT22;64115;50.170;8.242;2023-12-07T12:47:38;0.20;99.90
8261;DHT22;64115;50.170;8.242;2023-12-07T12:50:07;0.20;99.90
8261;DHT22;64115;50.170;8.242;2023-12-07T12:52:35;0.30;99.90
8261;DHT22;64115;50.170;8.242;2023-12-07T12:55:02;0.20;99.90
8261;DHT22;64115;50.170;8.242;2023-12-07T12:57:33;0.10;99.90
8261;DHT22;64115;50.170;8.242;2023-12-07T13:00:02;-0.10;99.90
8261;DHT22;64115;50.170;8.242;2023-12-07T13:02:29;-0.10;99.90
8261;DHT22;64115;50.170;8.242;2023-12-07T13:04:56;-0.10;99.90
8261;DHT22;64115;50.170;8.242;2023-12-07T13:07:24;0.00;99.90
8261;DHT22;64115;50.170;8.242;2023-12-07T13:09:51;-0.20;99.90
8261;DHT22;64115;50.170;8.242;2023-12-07T13:12:18;-0.20;99.90
8261;DHT22;64115;50.170;8.242;2023-12-07T13:14:45;-0.20;99.90
8261;DHT22;64115;50.170;8.242;2023-12-07T13:17:12;-0.20;99.90
8261;DHT22;64115;50.170;8.242;2023-12-07T13:19:39;-0.10;99.90
8261;DHT22;64115;50.170;8.242;2023-12-07T13:22:06;-0.10;99.90
8261;DHT22;64115;50.170;8.242;2023-12-07T13:24:34;0.00;99.90
8261;DHT22;64115;50.170;8.242;2023-12-07T13:27:02;0.00;99.90
8261;DHT22;64115;50.170;8.242;2023-12-07T13:29:29;-0.10;99.90
8261;DHT22;64115;50.170;8.242;2023-12-07T13:31:55;0.00;99.90
8261;DHT22;64115;50.170;8.242;2023-12-07T13:34:23;-0.10;99.90
8261;DHT22;64115;50.170;8.242;2023-12-07T13:36:51;-0.10;99.90
8261;DHT22;64115;50.170;8.242;2023-12-07T13:39:18;-0.20;99.90
8261;DHT22;64115;50.170;8.242;2023-12-07T13:41:47;-0.30;99.90
8261;DHT22;64115;50.170;8.242;2023-12-07T13:44:16;-0.50;99.90
8261;DHT22;64115;50.170;8.242;2023-12-07T13:46:45;-0.40;99.90
8261;DHT22;64115;50.170;8.242;2023-12-07T13:49:12;-0.40;99.90
8261;DHT22;64115;50.170;8.242;2023-12-07T13:51:40;-0.40;99.90
8261;DHT22;64115;50.170;8.242;2023-12-07T13:54:07;-0.40;99.90
8261;DHT22;64115;50.170;8.242;2023-12-07T13:56:34;-0.50;99.90
8261;DHT22;64115;50.170;8.242;2023-12-07T13:59:02;-0.40;99.90
8261;DHT22;64115;50.170;8.242;2023-12-07T14:01:29;-0.50;99.90
8261;DHT22;64115;50.170;8.242;2023-12-07T14:03:57;-0.40;99.90
8261;DHT22;64115;50.170;8.242;2023-12-07T14:06:24;-0.40;99.90
8261;DHT22;64115;50.170;8.242;2023-12-07T14:08:51;-0.40;99.90
8261;DHT22;64115;50.170;8.242;2023-12-07T14:11:18;-0.40;99.90
8261;DHT22;64115;50.170;8.242;2023-12-07T14:13:47;-0.50;99.90
8261;DHT22;64115;50.170;8.242;2023-12-07T14:16:15;-0.50;99.90
8261;DHT22;64115;50.170;8.242;2023-12-07T14:18:42;-0.50;99.90
8261;DHT22;64115;50.170;8.242;2023-12-07T14:21:09;-0.60;99.90
8261;DHT22;64115;50.170;8.242;2023-12-07T14:23:36;-0.60;99.90
8261;DHT22;64115;50.170;8.242;2023-12-07T14:26:03;-0.50;99.90
8261;DHT22;64115;50.170;8.242;2023-12-07T14:28:30;-0.40;99.90
8261;DHT22;64115;50.170;8.242;2023-12-07T14:30:59;-0.40;99.90
8261;DHT22;64115;50.170;8.242;2023-12-07T14:33:27;-0.50;99.90
8261;DHT22;64115;50.170;8.242;2023-12-07T14:35:54;-0.50;99.90
8261;DHT22;64115;50.170;8.242;2023-12-07T14:38:21;-0.50;99.90
8261;DHT22;64115;50.170;8.242;2023-12-07T14:40:49;-0.50;99.90
8261;DHT22;64115;50.170;8.242;2023-12-07T14:43:16;-0.60;99.90
8261;DHT22;64115;50.170;8.242;2023-12-07T14:45:43;-0.50;99.90
8261;DHT22;64115;50.170;8.242;2023-12-07T14:48:10;-0.60;99.90
8261;DHT22;64115;50.170;8.242;2023-12-07T14:50:38;-0.60;99.90
8261;DHT22;64115;50.170;8.242;2023-12-07T14:53:05;-0.60;99.90
8261;DHT22;64115;50.170;8.242;2023-12-07T14:55:32;-0.60;99.90
8261;DHT22;64115;50.170;8.242;2023-12-07T14:57:59;-0.60;99.90
8261;DHT22;64115;50.170;8.242;2023-12-07T15:00:26;-0.60;99.90
8261;DHT22;64115;50.170;8.242;2023-12-07T15:02:54;-0.60;99.90
8261;DHT22;64115;50.170;8.242;2023-12-07T15:05:21;-0.60;99.90
8261;DHT22;64115;50.170;8.242;2023-12-07T15:07:50;-0.70;99.90
8261;DHT22;64115;50.170;8.242;2023-12-07T15:10:17;-0.60;99.90
8261;DHT22;64115;50.170;8.242;2023-12-07T15:12:45;-0.60;99.90
8261;DHT22;64115;50.170;8.242;2023-12-07T15:15:11;-0.50;99.90
8261;DHT22;64115;50.170;8.242;2023-12-07T15:17:38;-0.60;99.90
8261;DHT22;64115;50.170;8.242;2023-12-07T15:20:07;-0.60;99.90
8261;DHT22;64115;50.170;8.242;2023-12-07T15:22:35;-0.60;99.90
8261;DHT22;64115;50.170;8.242;2023-12-07T15:25:06;-0.60;99.90
8261;DHT22;64115;50.170;8.242;2023-12-07T15:27:33;-0.60;99.90
8261;DHT22;64115;50.170;8.242;2023-12-07T15:30:00;-0.60;99.90
8261;DHT22;64115;50.170;8.242;2023-12-07T15:32:26;-0.60;99.90
8261;DHT22;64115;50.170;8.242;2023-12-07T15:34:53;-0.60;99.90
8261;DHT22;64115;50.170;8.242;2023-12-07T15:37:20;-0.60;99.90
8261;DHT22;64115;50.170;8.242;2023-12-07T15:39:47;-0.60;99.90
8261;DHT22;64115;50.170;8.242;2023-12-07T15:42:15;-0.50;99.90
8261;DHT22;64115;50.170;8.242;2023-12-07T15:44:41;-0.50;99.90
8261;DHT22;64115;50.170;8.242;2023-12-07T15:47:09;-0.50;99.90
8261;DHT22;64115;50.170;8.242;2023-12-07T15:49:36;-0.50;99.90
8261;DHT22;64115;50.170;8.242;2023-12-07T15:52:04;-0.40;99.90
8261;DHT22;64115;50.170;8.242;2023-12-07T15:54:31;-0.40;99.90